createdAt,value
2022-10-22T00:02:20.121Z,99998.40
2022-10-22T00:04:54.705Z,100003.40
2022-10-22T00:07:29.138Z,100010.40
2022-10-22T00:10:03.453Z,100015.40
2022-10-22T00:12:37.455Z,100011.20
2022-10-22T00:15:15.196Z,100010.00
2022-10-22T00:17:50.119Z,100012.00
2022-10-22T00:20:24.621Z,100009.20
2022-10-22T00:22:58.503Z,100003.60
2022-10-22T00:25:32.987Z,100003.40
2022-10-22T00:28:07.065Z,100003.00
2022-10-22T00:30:41.086Z,100008.20
2022-10-22T00:33:15.062Z,100007.00
2022-10-22T00:35:50.271Z,99999.80
2022-10-22T00:38:25.163Z,100003.80
2022-10-22T00:40:59.239Z,99998.80
2022-10-22T00:43:33.626Z,99990.80
2022-10-22T00:46:07.811Z,99975.20
2022-10-22T00:48:42.104Z,99976.40
2022-10-22T00:51:16.972Z,99971.40
2022-10-22T00:53:56.283Z,99969.40
2022-10-22T00:56:30.840Z,99968.00
2022-10-22T00:59:06.452Z,99963.60
2022-10-22T01:01:40.811Z,99959.40
2022-10-22T01:04:15.078Z,99954.80
2022-10-22T01:06:49.418Z,99957.60
2022-10-22T01:09:40.185Z,99949.00
2022-10-22T01:12:23.187Z,99935.60
2022-10-22T01:15:21.595Z,99940.60
2022-10-22T01:18:03.973Z,99941.60
2022-10-22T01:21:05.880Z,99941.00
2022-10-22T01:24:20.201Z,99943.60
2022-10-22T01:27:14.483Z,99945.20
2022-10-22T01:29:54.707Z,99958.00
2022-10-22T01:32:32.116Z,99964.40
2022-10-22T01:35:13.754Z,99998.20
2022-10-22T01:37:55.118Z,100003.40
2022-10-22T01:40:30.907Z,99977.00
2022-10-22T01:43:08.260Z,99952.20
2022-10-22T01:45:46.924Z,99952.40
2022-10-22T01:48:42.200Z,99965.20
2022-10-22T01:51:36.651Z,99962.20
2022-10-22T01:54:27.851Z,99943.80
2022-10-22T01:57:19.010Z,99946.80
2022-10-22T02:00:07.102Z,99936.80
2022-10-22T02:02:52.070Z,99936.20
2022-10-22T02:05:37.827Z,99939.40
2022-10-22T02:08:20.850Z,99949.40
2022-10-22T02:10:59.992Z,99942.20
2022-10-22T02:13:43.837Z,99939.60
2022-10-22T02:16:25.868Z,99932.60
2022-10-22T02:19:08.080Z,99926.60
2022-10-22T02:21:43.832Z,99919.20
2022-10-22T02:24:19.931Z,99918.80
2022-10-22T02:27:04.219Z,99912.40
2022-10-22T02:29:46.818Z,99912.20
2022-10-22T02:32:27.858Z,99916.20
2022-10-22T02:35:06.826Z,99926.40
2022-10-22T02:37:45.833Z,99937.20
2022-10-22T02:40:22.856Z,99947.60
2022-10-22T02:42:58.969Z,99938.80
2022-10-22T02:45:35.853Z,99935.80
2022-10-22T02:48:11.901Z,99943.20
2022-10-22T02:50:48.979Z,99949.80
2022-10-22T03:01:55.087Z,99951.20
2022-10-22T03:04:28.993Z,99956.20
2022-10-22T03:07:02.739Z,99940.60
2022-10-22T03:09:36.273Z,99943.40
2022-10-22T03:12:10.602Z,99947.00
2022-10-22T03:14:44.438Z,99957.20
2022-10-22T03:17:18.073Z,99948.40
2022-10-22T03:19:51.719Z,99951.20
2022-10-22T03:22:30.631Z,99951.40
2022-10-22T03:25:12.290Z,99948.60
2022-10-22T03:27:47.084Z,99951.20
2022-10-22T03:30:21.731Z,99948.80
2022-10-22T03:32:55.571Z,99949.20
2022-10-22T03:35:29.440Z,99948.20
2022-10-22T03:38:04.605Z,99955.20
2022-10-22T03:40:38.463Z,99945.20
2022-10-22T03:43:12.822Z,99945.40
2022-10-22T03:45:46.612Z,99941.40
2022-10-22T03:48:21.036Z,99942.00
2022-10-22T03:50:54.669Z,99946.60
2022-10-22T03:53:28.412Z,99950.00
2022-10-22T03:56:02.245Z,99942.00
2022-10-22T03:58:36.025Z,99951.60
2022-10-22T04:01:15.409Z,99949.00
2022-10-22T04:03:49.050Z,99955.20
2022-10-22T04:06:23.662Z,99952.80
2022-10-22T04:08:57.721Z,99949.20
2022-10-22T04:11:31.505Z,99948.60
2022-10-22T04:14:06.560Z,99941.00
2022-10-22T04:16:42.271Z,99946.00
2022-10-22T04:19:16.114Z,99946.00
2022-10-22T04:21:49.903Z,99949.40
2022-10-22T04:24:23.559Z,99942.60
2022-10-22T04:26:57.918Z,99940.20
2022-10-22T04:29:31.588Z,99936.00
2022-10-22T04:32:05.194Z,99932.20
2022-10-22T04:34:39.079Z,99921.60
2022-10-22T04:37:12.763Z,99922.00
2022-10-22T04:39:46.436Z,99920.60
2022-10-22T04:42:20.068Z,99920.00
2022-10-22T04:44:53.669Z,99919.60
2022-10-22T04:47:27.764Z,99929.40
2022-10-22T04:50:01.471Z,99928.20
2022-10-22T04:52:35.512Z,99927.20
2022-10-22T04:55:11.235Z,99931.00
2022-10-22T04:57:45.085Z,99935.00
2022-10-22T05:00:19.647Z,99955.60
2022-10-22T05:02:55.094Z,99968.80
2022-10-22T05:05:28.977Z,99970.00
2022-10-22T05:08:02.690Z,99969.60
2022-10-22T05:10:36.267Z,99965.00
2022-10-22T05:13:10.166Z,99960.00
2022-10-22T05:15:43.749Z,99958.20
2022-10-22T05:18:19.071Z,99958.00
2022-10-22T05:20:56.579Z,99961.60
2022-10-22T05:23:30.925Z,99957.40
2022-10-22T05:26:09.469Z,99958.80
2022-10-22T05:28:43.774Z,99963.20
2022-10-22T05:31:18.491Z,99961.60
2022-10-22T05:33:52.238Z,99961.80
2022-10-22T05:36:27.202Z,99968.60
2022-10-22T05:39:01.675Z,99973.80
2022-10-22T05:41:36.808Z,99974.80
2022-10-22T05:44:12.583Z,99974.20
2022-10-22T05:46:46.265Z,99980.20
2022-10-22T05:49:20.003Z,99983.40
2022-10-22T05:51:53.681Z,99999.80
2022-10-22T05:54:27.386Z,100007.60
2022-10-22T05:57:01.355Z,100016.60
2022-10-22T05:59:34.963Z,100024.20
2022-10-22T06:02:10.219Z,100029.00
2022-10-22T06:04:44.248Z,100029.40
2022-10-22T06:07:19.523Z,100027.00
2022-10-22T06:09:53.990Z,100016.80
2022-10-22T06:12:28.019Z,100008.00
2022-10-22T06:15:01.676Z,100013.80
2022-10-22T06:17:35.347Z,100018.20
2022-10-22T06:20:12.911Z,100004.40
2022-10-22T06:22:48.438Z,100011.00
2022-10-22T06:25:22.754Z,100008.60
2022-10-22T06:27:56.524Z,100004.00
2022-10-22T06:30:30.365Z,99999.60
2022-10-22T06:33:04.035Z,100000.60
2022-10-22T06:35:37.696Z,100007.40
2022-10-22T06:38:12.226Z,100008.60
2022-10-22T06:40:46.448Z,100001.60
2022-10-22T06:43:20.575Z,100002.80
2022-10-22T06:45:54.387Z,99994.60
2022-10-22T06:48:27.975Z,99995.80
2022-10-22T06:51:06.085Z,100004.60
2022-10-22T06:53:41.472Z,100007.20
2022-10-22T06:56:18.310Z,100005.80
2022-10-22T06:58:54.716Z,100006.40
2022-10-22T07:01:32.275Z,100013.00
2022-10-22T07:04:09.045Z,100008.00
2022-10-22T07:06:43.300Z,100002.80
2022-10-22T07:11:52.162Z,100019.80
2022-10-22T07:14:25.939Z,100021.80
2022-10-22T07:16:59.705Z,100020.60
2022-10-22T07:19:33.726Z,100018.60
2022-10-22T07:22:07.344Z,100013.80
2022-10-22T07:24:41.376Z,100023.00
2022-10-22T07:27:15.016Z,100019.60
2022-10-22T07:29:48.949Z,100011.20
2022-10-22T07:32:23.895Z,100007.60
2022-10-22T07:34:57.801Z,100011.20
2022-10-22T07:37:31.463Z,100008.20
2022-10-22T07:40:05.297Z,100015.40
2022-10-22T07:42:39.345Z,100017.40
2022-10-22T07:45:14.735Z,100016.80
2022-10-22T07:47:50.516Z,100016.60
2022-10-22T07:53:18.036Z,100023.80
2022-10-22T07:55:54.713Z,100023.80
2022-10-22T07:58:28.841Z,100019.80
2022-10-22T08:01:05.801Z,100022.20
2022-10-22T08:03:40.131Z,100024.00
2022-10-22T08:06:16.906Z,100028.60
2022-10-22T08:17:41.413Z,100034.20
2022-10-22T08:20:13.189Z,100035.60
2022-10-22T08:22:42.918Z,100030.60
2022-10-22T08:25:12.866Z,100032.60
2022-10-22T08:27:43.212Z,100026.20
2022-10-22T08:30:14.907Z,100031.80
2022-10-22T08:32:44.736Z,100036.80
2022-10-22T08:35:16.965Z,100037.00
2022-10-22T08:37:47.727Z,100036.80
2022-10-22T08:40:28.502Z,100041.40
2022-10-22T08:43:46.473Z,100048.20
2022-10-22T08:46:33.771Z,100063.00
2022-10-22T08:49:10.615Z,100064.00
2022-10-22T08:51:40.401Z,100079.60
2022-10-22T08:54:36.972Z,100081.60
2022-10-22T09:00:14.758Z,100068.20
2022-10-22T09:03:05.056Z,100058.00
2022-10-22T09:05:48.317Z,100059.40
2022-10-22T09:08:20.789Z,100049.80
2022-10-22T09:10:55.918Z,100049.40
2022-10-22T09:13:25.788Z,100048.80
2022-10-22T09:16:00.845Z,100045.80
2022-10-22T09:18:44.634Z,100048.20
2022-10-22T09:21:28.453Z,100054.00
2022-10-22T09:24:09.227Z,100058.20
2022-10-22T09:26:41.285Z,100056.80
2022-10-22T09:29:21.942Z,100059.00
2022-10-22T09:31:52.100Z,100057.60
2022-10-22T09:34:22.952Z,100059.20
2022-10-22T09:37:00.168Z,100053.40
2022-10-22T09:39:40.953Z,100060.20
2022-10-22T09:42:14.678Z,100067.40
2022-10-22T09:44:50.129Z,100073.60
2022-10-22T09:47:42.649Z,100069.00
2022-10-22T09:50:29.724Z,100066.20
2022-10-22T09:53:12.566Z,100068.00
2022-10-22T09:55:44.197Z,100060.60
2022-10-22T09:58:15.158Z,100061.80
2022-10-22T10:00:48.074Z,100061.20
2022-10-22T10:03:20.887Z,100063.20
2022-10-22T10:05:53.764Z,100067.60
2022-10-22T10:08:24.549Z,100064.20
2022-10-22T10:10:59.845Z,100060.00
2022-10-22T10:13:48.738Z,100065.80
2022-10-22T10:16:38.716Z,100071.60
2022-10-22T10:19:38.155Z,100081.00
2022-10-22T10:22:25.041Z,100084.60
2022-10-22T10:25:22.254Z,100086.40
2022-10-22T10:28:04.345Z,100080.60
2022-10-22T10:30:36.737Z,100068.20
2022-10-22T10:33:28.835Z,100067.20
2022-10-22T10:36:11.198Z,100071.80
2022-10-22T10:38:55.390Z,100070.80
2022-10-22T10:41:46.716Z,100075.80
2022-10-22T10:44:45.829Z,100077.40
2022-10-22T10:47:53.931Z,100078.80
2022-10-22T10:50:31.099Z,100075.80
2022-10-22T10:53:17.436Z,100075.80
2022-10-22T10:56:02.394Z,100083.80
2022-10-22T10:58:50.955Z,100078.40
2022-10-22T11:01:34.942Z,100076.20
2022-10-22T11:04:55.397Z,100079.00
2022-10-22T11:07:35.260Z,100083.00
2022-10-22T11:10:25.227Z,100079.20
2022-10-22T11:13:06.455Z,100069.60
2022-10-22T11:15:40.222Z,100063.00
2022-10-22T11:18:22.366Z,100058.60
2022-10-22T11:21:08.424Z,100059.00
2022-10-22T11:23:44.994Z,100050.20
2022-10-22T11:26:27.114Z,100049.20
2022-10-22T11:29:03.292Z,100043.20
2022-10-22T11:31:36.073Z,100037.40
2022-10-22T11:34:32.735Z,100039.80
2022-10-22T11:37:06.135Z,100032.40
2022-10-22T11:39:44.066Z,100029.00
2022-10-22T11:42:22.545Z,100036.80
2022-10-22T11:45:05.054Z,100037.80
2022-10-22T11:47:52.896Z,100044.60
2022-10-22T11:50:26.991Z,100048.20
2022-10-22T11:53:07.305Z,100047.80
2022-10-22T11:55:48.240Z,100042.20
2022-10-22T11:58:41.478Z,100047.60
2022-10-22T12:01:27.292Z,100043.80
2022-10-22T12:04:22.138Z,100041.40
2022-10-22T12:07:00.383Z,100047.40
2022-10-22T12:09:32.936Z,100044.80
2022-10-22T12:12:15.753Z,100051.40
2022-10-22T12:14:58.809Z,100041.40
2022-10-22T12:17:32.069Z,100042.80
2022-10-22T12:20:13.208Z,100041.00
2022-10-22T12:22:43.799Z,100040.60
2022-10-22T12:25:24.146Z,100034.40
2022-10-22T12:27:57.084Z,100028.80
2022-10-22T12:30:30.847Z,100025.60
2022-10-22T12:33:04.506Z,100029.00
2022-10-22T12:35:44.468Z,100034.60
2022-10-22T12:38:19.868Z,100040.00
2022-10-22T12:40:51.860Z,100037.20
2022-10-22T12:43:28.066Z,100035.80
2022-10-22T12:53:31.435Z,100030.60
2022-10-22T12:56:06.178Z,100035.20
2022-10-22T12:58:41.499Z,100038.60
2022-10-22T13:01:14.269Z,100040.20
2022-10-22T13:03:50.101Z,100034.20
2022-10-22T13:06:29.323Z,100032.40
2022-10-22T13:09:14.415Z,100037.40
2022-10-22T13:11:53.596Z,100043.00
2022-10-22T13:14:30.535Z,100041.60
2022-10-22T13:17:14.747Z,100031.20
2022-10-22T13:19:49.939Z,100031.80
2022-10-22T13:22:38.115Z,100031.40
2022-10-22T13:25:24.500Z,100036.80
2022-10-22T13:27:57.318Z,100038.40
2022-10-22T13:30:31.977Z,100033.80
2022-10-22T13:33:04.059Z,100038.20
2022-10-22T13:35:37.475Z,100039.40
2022-10-22T13:38:20.569Z,100045.40
2022-10-22T13:40:51.259Z,100048.00
2022-10-22T13:43:22.507Z,100052.80
2022-10-22T13:45:59.057Z,100050.20
2022-10-22T13:48:32.003Z,100053.60
2022-10-22T13:51:02.306Z,100056.40
2022-10-22T13:53:32.571Z,100057.40
2022-10-22T13:56:02.157Z,100059.60
2022-10-22T13:58:32.251Z,100060.40
2022-10-22T14:01:08.146Z,100064.20
2022-10-22T14:03:39.921Z,100059.60
2022-10-22T14:06:15.214Z,100063.20
2022-10-22T14:08:47.865Z,100066.00
2022-10-22T14:11:18.322Z,100072.80
2022-10-22T14:13:48.031Z,100075.40
2022-10-22T14:16:22.887Z,100077.40
2022-10-22T14:18:54.068Z,100085.00
2022-10-22T14:21:23.902Z,100079.80
2022-10-22T14:23:53.993Z,100084.80
2022-10-22T14:26:29.698Z,100079.80
2022-10-22T14:29:15.452Z,100087.20
2022-10-22T14:31:45.640Z,100084.00
2022-10-22T14:34:17.197Z,100087.60
2022-10-22T14:36:46.806Z,100082.40
2022-10-22T14:39:17.744Z,100088.20
2022-10-22T14:41:47.763Z,100087.40
2022-10-22T14:44:17.606Z,100094.80
2022-10-22T14:46:47.264Z,100096.60
2022-10-22T14:49:16.992Z,100094.40
2022-10-22T14:51:46.543Z,100089.40
2022-10-22T14:54:17.100Z,100094.40
2022-10-22T14:56:46.633Z,100095.80
2022-10-22T14:59:16.354Z,100105.20
2022-10-22T15:01:46.010Z,100108.00
2022-10-22T15:04:15.563Z,100105.00
2022-10-22T15:06:45.272Z,100108.40
2022-10-22T15:09:15.109Z,100108.80
2022-10-22T15:11:44.758Z,100109.80
2022-10-22T15:14:15.029Z,100110.40
2022-10-22T15:16:44.780Z,100110.60
2022-10-22T15:19:14.992Z,100113.40
2022-10-22T15:21:44.694Z,100112.00
2022-10-22T15:24:14.215Z,100121.60
2022-10-22T15:26:44.315Z,100115.80
2022-10-22T15:29:13.896Z,100119.00
2022-10-22T15:31:49.415Z,100125.40
2022-10-22T15:34:25.704Z,100131.00
2022-10-22T15:36:59.228Z,100134.40
2022-10-22T15:39:30.110Z,100142.00
2022-10-22T15:42:00.671Z,100142.60
2022-10-22T15:44:32.901Z,100147.80
2022-10-22T15:47:06.605Z,100150.20
2022-10-22T15:49:41.182Z,100157.20
2022-10-22T15:52:11.059Z,100166.00
2022-10-22T15:54:43.324Z,100159.80
2022-10-22T15:57:12.947Z,100163.20
2022-10-22T15:59:42.779Z,100170.20
2022-10-22T16:02:12.665Z,100167.40
2022-10-22T16:04:42.658Z,100160.60
2022-10-22T16:07:12.266Z,100158.60
2022-10-22T16:09:42.050Z,100161.80
2022-10-22T16:12:13.194Z,100171.20
2022-10-22T16:14:45.059Z,100170.00
2022-10-22T16:17:15.092Z,100172.80
2022-10-22T16:19:44.805Z,100169.40
2022-10-22T16:22:15.030Z,100173.80
2022-10-22T16:24:45.623Z,100172.80
2022-10-22T16:27:15.259Z,100178.20
2022-10-22T16:29:45.105Z,100182.60
2022-10-22T16:32:15.844Z,100185.20
2022-10-22T16:34:45.403Z,100187.80
2022-10-22T16:37:15.363Z,100193.80
2022-10-22T16:39:46.809Z,100193.40
2022-10-22T16:42:16.574Z,100196.60
2022-10-22T16:44:46.224Z,100202.20
2022-10-22T16:47:15.880Z,100206.20
2022-10-22T16:49:45.624Z,100211.60
2022-10-22T16:52:15.327Z,100211.60
2022-10-22T16:54:46.402Z,100215.20
2022-10-22T16:57:16.361Z,100217.00
2022-10-22T16:59:50.217Z,100214.00
2022-10-22T17:02:20.374Z,100220.20
2022-10-22T17:04:50.111Z,100218.80
2022-10-22T17:07:20.074Z,100225.60
2022-10-22T17:09:50.113Z,100224.80
2022-10-22T17:12:20.017Z,100227.00
2022-10-22T17:14:50.533Z,100231.00
2022-10-22T17:17:21.475Z,100228.00
2022-10-22T17:19:52.156Z,100233.80
2022-10-22T17:22:22.105Z,100231.60
2022-10-22T17:25:13.984Z,100226.80
2022-10-22T17:27:44.896Z,100229.40
2022-10-22T17:30:24.821Z,100235.80
2022-10-22T17:32:57.076Z,100239.20
2022-10-22T17:38:02.438Z,100248.20
2022-10-22T17:40:32.109Z,100257.00
2022-10-22T17:43:01.760Z,100258.00
2022-10-22T17:45:31.385Z,100259.00
2022-10-22T17:48:03.411Z,100264.60
2022-10-22T17:50:32.980Z,100264.40
2022-10-22T17:53:03.559Z,100271.60
2022-10-22T17:55:34.444Z,100276.40
2022-10-22T17:58:04.475Z,100277.40
2022-10-22T18:00:36.171Z,100275.60
2022-10-22T18:03:06.715Z,100280.60
2022-10-22T18:05:37.453Z,100281.60
2022-10-22T18:08:07.941Z,100279.40
2022-10-22T18:10:41.986Z,100280.00
2022-10-22T18:13:13.231Z,100281.20
2022-10-22T18:15:43.333Z,100286.80
2022-10-22T18:18:13.266Z,100290.60
2022-10-22T18:20:48.024Z,100289.80
2022-10-22T18:23:18.216Z,100287.20
2022-10-22T18:25:49.163Z,100293.60
2022-10-22T18:28:20.505Z,100297.00
2022-10-22T18:30:51.406Z,100294.20
2022-10-22T18:33:24.588Z,100291.60
2022-10-22T18:35:54.255Z,100299.40
2022-10-22T18:38:24.349Z,100299.40
2022-10-22T18:40:55.403Z,100303.80
2022-10-22T18:43:25.838Z,100300.20
2022-10-22T18:45:55.498Z,100306.80
2022-10-22T18:48:25.436Z,100303.00
2022-10-22T18:51:03.952Z,100303.00
2022-10-22T18:53:35.150Z,100304.20
2022-10-22T18:56:09.520Z,100308.20
2022-10-22T18:58:41.270Z,100307.80
2022-10-22T19:01:15.130Z,100312.60
2022-10-22T19:03:45.468Z,100313.00
2022-10-22T19:06:17.838Z,100318.00
2022-10-22T19:08:51.422Z,100321.20
2022-10-22T19:11:21.232Z,100324.00
2022-10-22T19:13:51.188Z,100327.80
2022-10-22T19:16:23.614Z,100327.40
2022-10-22T19:18:59.981Z,100334.00
2022-10-22T19:21:30.566Z,100338.20
2022-10-22T19:24:01.880Z,100338.20
2022-10-22T19:26:32.639Z,100341.40
2022-10-22T19:29:03.647Z,100342.00
2022-10-22T19:31:33.462Z,100347.20
2022-10-22T19:34:04.421Z,100350.60
2022-10-22T19:36:35.450Z,100354.40
2022-10-22T19:39:08.308Z,100355.00
2022-10-22T19:41:40.048Z,100354.40
2022-10-22T19:44:14.868Z,100358.40
2022-10-22T19:46:45.019Z,100359.60
2022-10-22T19:49:18.932Z,100366.60
2022-10-22T19:51:52.480Z,100369.40
2022-10-22T19:54:22.888Z,100367.80
2022-10-22T19:56:54.722Z,100371.60
2022-10-22T19:59:28.652Z,100371.40
2022-10-22T20:02:01.830Z,100380.20
2022-10-22T20:04:33.403Z,100378.00
2022-10-22T20:07:05.562Z,100380.60
2022-10-22T20:09:35.633Z,100377.60
2022-10-22T20:12:06.511Z,100378.20
2022-10-22T20:14:36.936Z,100379.40
2022-10-22T20:17:06.871Z,100390.00
2022-10-22T20:19:37.031Z,100394.20
2022-10-22T20:22:07.738Z,100398.40
2022-10-22T20:24:37.994Z,100394.40
2022-10-22T20:27:08.281Z,100396.00
2022-10-22T20:29:38.344Z,100389.20
2022-10-22T20:32:09.468Z,100398.00
2022-10-22T20:34:41.138Z,100398.40
2022-10-22T20:37:11.749Z,100404.80
2022-10-22T20:39:42.659Z,100399.40
2022-10-22T20:42:14.808Z,100398.40
2022-10-22T20:44:45.145Z,100398.00
2022-10-22T20:47:15.772Z,100400.80
2022-10-22T20:49:45.513Z,100406.20
2022-10-22T20:52:15.396Z,100402.20
2022-10-22T20:54:45.325Z,100397.80
2022-10-22T20:57:14.980Z,100400.80
2022-10-22T20:59:45.369Z,100400.20
2022-10-22T21:02:15.178Z,100408.40
2022-10-22T21:04:45.727Z,100407.80
2022-10-22T21:07:16.396Z,100406.00
2022-10-22T21:09:46.305Z,100410.80
2022-10-22T21:12:16.072Z,100412.80
2022-10-22T21:14:47.229Z,100414.20
2022-10-22T21:17:17.517Z,100420.00
2022-10-22T21:19:47.681Z,100420.20
2022-10-22T21:22:17.962Z,100422.00
2022-10-22T21:24:47.981Z,100422.20
2022-10-22T21:27:18.758Z,100422.20
2022-10-22T21:29:49.838Z,100425.80
2022-10-22T21:32:19.861Z,100428.20
2022-10-22T21:34:50.436Z,100423.80
2022-10-22T21:37:22.290Z,100424.80
2022-10-22T21:39:52.375Z,100420.00
2022-10-22T21:42:22.500Z,100427.00
2022-10-22T21:44:52.353Z,100432.60
2022-10-22T21:47:22.459Z,100435.20
2022-10-22T21:49:52.453Z,100436.60
2022-10-22T21:52:22.128Z,100439.80
2022-10-22T21:54:51.907Z,100438.40
2022-10-22T21:57:22.012Z,100441.20
2022-10-22T21:59:52.044Z,100447.00
2022-10-22T22:04:58.027Z,100448.60
2022-10-22T22:07:27.651Z,100452.60
2022-10-22T22:09:57.334Z,100453.80
2022-10-22T22:12:27.131Z,100454.20
2022-10-22T22:14:56.865Z,100455.60
2022-10-22T22:17:26.629Z,100454.80
2022-10-22T22:19:56.442Z,100455.40
2022-10-22T22:22:27.267Z,100454.00
2022-10-22T22:24:57.027Z,100448.20
2022-10-22T22:27:26.880Z,100451.40
2022-10-22T22:29:56.433Z,100453.60
2022-10-22T22:32:26.093Z,100458.40
2022-10-22T22:34:55.667Z,100460.20
2022-10-22T22:37:26.835Z,100465.60
2022-10-22T22:39:56.371Z,100470.40
2022-10-22T22:42:25.855Z,100468.00
2022-10-22T22:44:55.498Z,100468.40
2022-10-22T22:47:25.256Z,100468.80
2022-10-22T22:49:54.898Z,100466.20
2022-10-22T22:52:24.637Z,100471.20
2022-10-22T22:54:54.204Z,100477.60
2022-10-22T22:57:23.721Z,100471.80
2022-10-22T22:59:53.313Z,100475.20
2022-10-22T23:02:23.048Z,100479.20
2022-10-22T23:04:52.719Z,100469.40
2022-10-22T23:07:22.274Z,100476.20
2022-10-22T23:09:52.245Z,100475.20
2022-10-22T23:12:22.355Z,100479.60
2022-10-22T23:14:52.452Z,100475.40
2022-10-22T23:17:22.163Z,100480.00
2022-10-22T23:19:52.199Z,100476.40
2022-10-22T23:22:22.211Z,100478.80
2022-10-22T23:24:52.038Z,100477.20
2022-10-22T23:27:21.749Z,100478.00
2022-10-22T23:29:51.364Z,100477.80
2022-10-22T23:32:21.034Z,100479.40
2022-10-22T23:34:50.684Z,100486.20
2022-10-22T23:37:20.181Z,100486.80
2022-10-22T23:39:49.822Z,100489.60
2022-10-22T23:42:19.377Z,100482.60
2022-10-22T23:44:48.951Z,100480.60
2022-10-22T23:47:18.592Z,100480.40
2022-10-22T23:49:48.259Z,100476.40
2022-10-22T23:52:17.824Z,100480.00
2022-10-22T23:54:49.063Z,100488.00
2022-10-22T23:57:18.592Z,100491.40
2022-10-22T23:59:48.172Z,100494.00
